AYPY/POM METAR and TAF weather

Enter ICAO airport designator
Station Type Date Time Source
AYPY METAR 2019/10/16 14:00 UTC NOAA

AYPY 161400Z 14003KT 9999 FEW050 24/22 Q1012=


Station Type Date Time Source
AYPY Decoded METAR 2019/10/16 14:00 UTC NOAA

Moresby, Papua New Guinea (AYPY) 09-26S 147-13E 49M
Oct 16, 2019 - 10:00 AM EDT / 2019.10.16 1400 UTC
Wind: from the SE (140 degrees) at 3 MPH (3 KT):0
Visibility: greater than 7 mile(s):0
Sky conditions: mostly clear
Temperature: 75 F (24 C)
Dew Point: 71 F (22 C)
Relative Humidity: 88%
Pressure (altimeter): 29.88 in. Hg (1012 hPa)
ob: AYPY 161400Z 14003KT 9999 FEW050 24/22 Q1012=
cycle: 14

Station Type Date Time Source
AYPY TAF 2019/10/16 18:42 UTC NOAA

TAF AYPY 161544Z 1618/1718 00000KT 9999 FEW040
FM162200 VRB03KT 9999 FEW018
FM170001 16010KT 9999 FEW018 PROB30 1619/1621 0700 FG

Example: see airport list